createdAt,value
2022-12-29T00:01:32.947Z,9.20
2022-12-29T00:04:00.053Z,9.20
2022-12-29T00:06:27.314Z,9.20
2022-12-29T00:08:54.162Z,9.30
2022-12-29T00:11:29.833Z,9.30
2022-12-29T00:14:15.779Z,9.20
2022-12-29T00:16:44.230Z,9.20
2022-12-29T00:19:32.297Z,9.10
2022-12-29T00:22:18.738Z,9.20
2022-12-29T00:25:01.266Z,9.20
2022-12-29T00:27:48.856Z,9.20
2022-12-29T00:30:38.251Z,9.20
2022-12-29T00:33:34.956Z,9.20
2022-12-29T00:36:04.882Z,9.30
2022-12-29T00:38:55.564Z,9.20
2022-12-29T00:41:41.043Z,9.20
2022-12-29T00:44:11.265Z,9.20
2022-12-29T00:46:39.770Z,9.20
2022-12-29T00:49:27.589Z,9.20
2022-12-29T00:51:55.484Z,9.30
2022-12-29T00:54:22.527Z,9.20
2022-12-29T00:56:50.636Z,9.30
2022-12-29T00:59:17.609Z,9.30
2022-12-29T01:01:45.813Z,9.30
2022-12-29T01:04:13.518Z,9.20
2022-12-29T01:06:41.942Z,9.20
2022-12-29T01:09:28.624Z,9.30
2022-12-29T01:11:55.725Z,9.20
2022-12-29T01:14:23.106Z,9.20
2022-12-29T01:16:50.348Z,9.20
2022-12-29T01:19:18.636Z,9.20
2022-12-29T01:21:46.551Z,9.20
2022-12-29T01:24:14.011Z,9.20
2022-12-29T01:26:40.919Z,9.20
2022-12-29T01:29:07.909Z,9.30
2022-12-29T01:31:34.797Z,9.30
2022-12-29T01:34:02.074Z,9.20
2022-12-29T01:36:28.805Z,9.30
2022-12-29T01:38:55.559Z,9.30
2022-12-29T01:41:23.409Z,9.30
2022-12-29T01:43:57.523Z,9.30
2022-12-29T01:46:36.259Z,9.30
2022-12-29T01:49:09.130Z,9.30
2022-12-29T01:51:51.807Z,9.30
2022-12-29T01:54:34.060Z,9.30
2022-12-29T01:57:04.395Z,9.30
2022-12-29T01:59:35.596Z,9.30
2022-12-29T02:02:03.002Z,9.30
2022-12-29T02:04:33.395Z,9.30
2022-12-29T02:07:08.906Z,9.30
2022-12-29T02:09:35.725Z,9.30
2022-12-29T02:12:03.884Z,9.30
2022-12-29T02:14:31.580Z,9.30
2022-12-29T02:17:34.836Z,9.30
2022-12-29T02:20:07.441Z,9.30
2022-12-29T02:22:37.082Z,9.30
2022-12-29T02:25:21.141Z,9.30
2022-12-29T02:28:03.999Z,9.30
2022-12-29T02:30:51.919Z,9.30
2022-12-29T02:33:39.439Z,9.30
2022-12-29T02:36:27.790Z,9.20
2022-12-29T02:39:04.565Z,9.30
2022-12-29T02:41:33.377Z,9.30
2022-12-29T02:44:15.499Z,9.30
2022-12-29T02:46:48.198Z,9.30
2022-12-29T02:49:23.685Z,9.30
2022-12-29T02:52:04.994Z,9.30
2022-12-29T02:54:42.152Z,9.30
2022-12-29T02:57:20.981Z,9.30
2022-12-29T02:59:52.860Z,9.20
2022-12-29T03:02:28.579Z,9.20
2022-12-29T03:05:14.131Z,9.20
2022-12-29T03:08:02.771Z,9.20
2022-12-29T03:10:58.385Z,9.20
2022-12-29T03:14:07.682Z,9.10
2022-12-29T03:16:46.687Z,9.10
2022-12-29T03:19:33.632Z,9.00
2022-12-29T03:22:26.573Z,8.90
2022-12-29T03:24:58.906Z,8.90
2022-12-29T03:27:41.886Z,8.80
2022-12-29T03:30:10.144Z,8.90
2022-12-29T03:32:48.433Z,8.90
2022-12-29T03:35:18.571Z,8.80
2022-12-29T03:38:00.704Z,8.80
2022-12-29T03:40:29.822Z,8.80
2022-12-29T03:42:57.113Z,8.80
2022-12-29T03:45:24.050Z,8.80
2022-12-29T03:47:51.538Z,8.80
2022-12-29T03:50:18.303Z,8.80
2022-12-29T03:52:45.323Z,8.80
2022-12-29T03:55:12.562Z,8.80
2022-12-29T03:57:39.350Z,8.80
2022-12-29T04:00:07.648Z,8.80
2022-12-29T04:02:34.506Z,8.70
2022-12-29T04:05:01.448Z,8.70
2022-12-29T04:07:28.273Z,8.70
2022-12-29T04:09:55.100Z,8.60
2022-12-29T04:12:21.966Z,8.60
2022-12-29T04:14:48.759Z,8.60
2022-12-29T04:17:15.793Z,8.60
2022-12-29T04:19:42.563Z,8.60
2022-12-29T04:22:09.535Z,8.50
2022-12-29T04:24:36.330Z,8.50
2022-12-29T04:27:03.172Z,8.50
2022-12-29T04:29:29.974Z,8.40
2022-12-29T04:31:56.755Z,8.40
2022-12-29T04:34:23.587Z,8.40
2022-12-29T04:36:50.449Z,8.40
2022-12-29T04:39:17.217Z,8.40
2022-12-29T04:41:43.985Z,8.40
2022-12-29T04:44:10.952Z,8.40
2022-12-29T04:46:37.868Z,8.40
2022-12-29T04:49:09.615Z,8.30
2022-12-29T04:51:36.987Z,8.30
2022-12-29T04:54:04.049Z,8.30
2022-12-29T04:56:30.877Z,8.30
2022-12-29T04:58:57.681Z,8.30
2022-12-29T05:01:24.693Z,8.30
2022-12-29T05:03:53.183Z,8.30
2022-12-29T05:06:20.364Z,8.30
2022-12-29T05:08:47.332Z,8.30
2022-12-29T05:11:14.330Z,8.30
2022-12-29T05:13:41.306Z,8.20
2022-12-29T05:16:08.255Z,8.30
2022-12-29T05:18:35.231Z,8.20
2022-12-29T05:21:02.115Z,8.30
2022-12-29T05:23:28.943Z,8.30
2022-12-29T05:25:55.770Z,8.20
2022-12-29T05:28:22.719Z,8.30
2022-12-29T05:30:51.227Z,8.20
2022-12-29T05:33:19.435Z,8.20
2022-12-29T05:35:46.631Z,8.20
2022-12-29T05:38:13.458Z,8.20
2022-12-29T05:40:40.443Z,8.30
2022-12-29T05:43:07.318Z,8.30
2022-12-29T05:45:34.616Z,8.30
2022-12-29T05:48:01.440Z,8.30
2022-12-29T05:50:28.309Z,8.30
2022-12-29T05:52:55.228Z,8.30
2022-12-29T05:55:22.162Z,8.30
2022-12-29T05:57:48.988Z,8.30
2022-12-29T06:00:16.464Z,8.30
2022-12-29T06:02:43.861Z,8.30
2022-12-29T06:05:10.970Z,8.30
2022-12-29T06:07:37.975Z,8.30
2022-12-29T06:10:08.841Z,8.30
2022-12-29T06:12:35.807Z,8.30
2022-12-29T06:15:02.841Z,8.30
2022-12-29T06:17:29.650Z,8.30
2022-12-29T06:19:56.434Z,8.30
2022-12-29T06:22:23.159Z,8.30
2022-12-29T06:24:49.936Z,8.30
2022-12-29T06:27:17.051Z,8.40
2022-12-29T06:29:44.239Z,8.40
2022-12-29T06:32:11.190Z,8.40
2022-12-29T06:34:38.069Z,8.40
2022-12-29T06:37:05.121Z,8.40
2022-12-29T06:39:31.969Z,8.40
2022-12-29T06:41:58.686Z,8.40
2022-12-29T06:44:26.086Z,8.50
2022-12-29T06:46:52.827Z,8.50
2022-12-29T06:49:19.712Z,8.50
2022-12-29T06:51:46.835Z,8.50
2022-12-29T06:54:13.722Z,8.50
2022-12-29T06:56:41.068Z,8.50
2022-12-29T06:59:08.369Z,8.50
2022-12-29T07:01:37.074Z,8.50
2022-12-29T07:04:04.720Z,8.60
2022-12-29T07:06:31.541Z,8.60
2022-12-29T07:08:58.484Z,8.60
2022-12-29T07:11:25.510Z,8.60
2022-12-29T07:13:52.717Z,8.60
2022-12-29T07:16:20.033Z,8.60
2022-12-29T07:18:46.946Z,8.60
2022-12-29T07:21:13.707Z,8.70
2022-12-29T07:23:40.696Z,8.70
2022-12-29T07:26:10.778Z,8.70
2022-12-29T07:28:39.066Z,8.70
2022-12-29T07:31:07.127Z,8.70
2022-12-29T07:33:34.394Z,8.70
2022-12-29T07:36:01.345Z,8.70
2022-12-29T07:38:28.148Z,8.70
2022-12-29T07:40:59.404Z,8.70
2022-12-29T07:43:26.581Z,8.80
2022-12-29T07:45:53.443Z,8.80
2022-12-29T07:48:20.571Z,8.80
2022-12-29T07:50:47.476Z,8.80
2022-12-29T07:53:14.569Z,8.80
2022-12-29T07:55:42.072Z,8.80
2022-12-29T07:58:09.292Z,8.80
2022-12-29T08:00:36.240Z,8.80
2022-12-29T08:03:03.088Z,8.90
2022-12-29T08:05:31.046Z,8.90
2022-12-29T08:07:58.002Z,8.90
2022-12-29T08:10:25.068Z,8.90
2022-12-29T08:12:52.564Z,8.90
2022-12-29T08:15:19.447Z,9.00
2022-12-29T08:17:46.402Z,9.00
2022-12-29T08:20:13.453Z,9.00
2022-12-29T08:22:40.955Z,9.00
2022-12-29T08:25:08.205Z,9.10
2022-12-29T08:27:35.415Z,9.10
2022-12-29T08:30:02.592Z,9.20
2022-12-29T08:32:29.707Z,9.20
2022-12-29T08:34:56.738Z,9.20
2022-12-29T08:37:29.029Z,9.20
2022-12-29T08:40:01.099Z,9.20
2022-12-29T08:42:32.131Z,9.20
2022-12-29T08:44:59.987Z,9.30
2022-12-29T08:47:27.648Z,9.30
2022-12-29T08:49:54.805Z,9.30
2022-12-29T08:52:21.703Z,9.30
2022-12-29T08:54:48.612Z,9.30
2022-12-29T08:57:15.458Z,9.40
2022-12-29T08:59:42.322Z,9.40
2022-12-29T09:02:13.963Z,9.50
2022-12-29T09:04:43.462Z,9.50
2022-12-29T09:07:10.463Z,9.50
2022-12-29T09:09:37.293Z,9.50
2022-12-29T09:12:04.354Z,9.60
2022-12-29T09:14:31.183Z,9.60
2022-12-29T09:17:16.731Z,9.60
2022-12-29T09:19:43.671Z,9.60
2022-12-29T09:22:10.441Z,9.60
2022-12-29T09:24:37.433Z,9.70
2022-12-29T09:27:04.403Z,9.70
2022-12-29T09:29:31.184Z,9.70
2022-12-29T09:31:58.035Z,9.70
2022-12-29T09:34:24.859Z,9.80
2022-12-29T09:36:51.966Z,9.80
2022-12-29T09:39:18.775Z,9.80
2022-12-29T09:42:01.466Z,9.90
2022-12-29T09:44:44.364Z,9.90
2022-12-29T09:47:15.720Z,9.90
2022-12-29T09:49:50.866Z,9.90
2022-12-29T09:52:30.775Z,9.90
2022-12-29T09:55:10.425Z,10.00
2022-12-29T09:58:12.167Z,10.00
2022-12-29T10:00:55.708Z,10.00
2022-12-29T10:03:27.336Z,10.00
2022-12-29T10:06:18.949Z,10.00
2022-12-29T10:09:28.013Z,10.00
2022-12-29T10:12:23.416Z,10.00
2022-12-29T10:14:59.938Z,10.00
2022-12-29T10:20:29.758Z,10.00
2022-12-29T10:23:14.625Z,10.10
2022-12-29T10:25:43.923Z,10.10
2022-12-29T10:28:40.663Z,10.10
2022-12-29T10:31:21.422Z,10.10
2022-12-29T10:34:11.213Z,10.10
2022-12-29T10:36:49.784Z,10.10
2022-12-29T10:39:54.830Z,10.10
2022-12-29T10:42:29.165Z,10.10
2022-12-29T10:44:57.654Z,10.10
2022-12-29T10:47:29.415Z,10.20
2022-12-29T10:49:56.661Z,10.20
2022-12-29T10:52:24.520Z,10.30
2022-12-29T10:54:51.236Z,10.30
2022-12-29T10:57:36.309Z,10.40
2022-12-29T11:00:13.379Z,10.40
2022-12-29T11:02:46.783Z,10.40
2022-12-29T11:05:19.278Z,10.40
2022-12-29T11:07:49.737Z,10.50
2022-12-29T11:10:31.006Z,10.50
2022-12-29T11:12:58.042Z,10.50
2022-12-29T11:15:24.885Z,10.50
2022-12-29T11:18:00.565Z,10.50
2022-12-29T11:20:30.501Z,10.60
2022-12-29T11:22:59.493Z,10.60
2022-12-29T11:25:26.483Z,10.70
2022-12-29T11:28:05.324Z,10.70
2022-12-29T11:30:33.179Z,10.70
2022-12-29T11:33:04.108Z,10.70
2022-12-29T11:35:35.284Z,10.70
2022-12-29T11:38:03.323Z,10.70
2022-12-29T11:40:31.321Z,10.80
2022-12-29T11:42:59.722Z,10.70
2022-12-29T11:45:30.295Z,10.70
2022-12-29T11:47:58.606Z,10.80
2022-12-29T11:50:33.684Z,10.80
2022-12-29T11:53:25.782Z,10.80
2022-12-29T11:55:58.666Z,10.80
2022-12-29T11:58:37.472Z,10.80
2022-12-29T12:01:28.530Z,10.80
2022-12-29T12:04:02.582Z,10.80
2022-12-29T12:06:32.267Z,10.90
2022-12-29T12:09:15.644Z,10.90
2022-12-29T12:11:46.434Z,10.90
2022-12-29T12:14:29.955Z,10.90
2022-12-29T12:17:03.521Z,11.00
2022-12-29T12:19:37.849Z,11.00
2022-12-29T12:22:42.516Z,11.00
2022-12-29T12:25:14.292Z,11.00
2022-12-29T12:28:04.172Z,11.00
2022-12-29T12:30:40.239Z,11.00
2022-12-29T12:33:14.854Z,11.00
2022-12-29T12:36:10.079Z,11.00
2022-12-29T12:38:36.782Z,11.10
2022-12-29T12:41:07.136Z,11.10
2022-12-29T12:43:52.393Z,11.10
2022-12-29T12:46:44.242Z,11.10
2022-12-29T12:49:36.909Z,11.20
2022-12-29T12:53:08.173Z,11.10
2022-12-29T12:56:05.867Z,11.20
2022-12-29T12:59:02.975Z,11.20
2022-12-29T13:01:40.930Z,11.20
2022-12-29T13:04:26.661Z,11.20
2022-12-29T13:06:53.466Z,11.20
2022-12-29T13:10:04.886Z,11.20
2022-12-29T13:12:45.655Z,11.20
2022-12-29T13:15:41.748Z,11.20
2022-12-29T13:18:47.820Z,11.30
2022-12-29T13:21:56.152Z,11.30
2022-12-29T13:25:05.182Z,11.30
2022-12-29T13:27:45.538Z,11.30
2022-12-29T13:30:52.095Z,11.30
2022-12-29T13:33:25.368Z,11.30
2022-12-29T13:36:20.892Z,11.30
2022-12-29T13:39:20.652Z,11.40
2022-12-29T13:41:54.884Z,11.40
2022-12-29T13:44:53.810Z,11.40
2022-12-29T13:47:43.350Z,11.40
2022-12-29T13:50:17.999Z,11.40
2022-12-29T13:52:59.410Z,11.40
2022-12-29T13:55:29.113Z,11.50
2022-12-29T13:58:24.318Z,11.50
2022-12-29T14:01:04.150Z,11.50
2022-12-29T14:03:52.939Z,11.50
2022-12-29T14:06:35.713Z,11.50
2022-12-29T14:09:06.714Z,11.50
2022-12-29T14:11:42.820Z,11.50
2022-12-29T14:14:28.870Z,11.60
2022-12-29T14:17:14.279Z,11.50
2022-12-29T14:19:47.443Z,11.50
2022-12-29T14:22:14.441Z,11.60
2022-12-29T14:24:47.505Z,11.60
2022-12-29T14:27:14.231Z,11.50
2022-12-29T14:29:41.047Z,11.50
2022-12-29T14:32:31.144Z,11.50
2022-12-29T14:34:59.431Z,11.50
2022-12-29T14:37:27.886Z,11.60
2022-12-29T14:40:09.704Z,11.60
2022-12-29T14:42:38.677Z,11.60
2022-12-29T14:45:14.430Z,11.60
2022-12-29T14:47:49.384Z,11.50
2022-12-29T14:50:21.896Z,11.60
2022-12-29T14:53:03.471Z,11.60
2022-12-29T14:55:43.529Z,11.60
2022-12-29T14:58:31.600Z,11.60
2022-12-29T15:00:59.948Z,11.60
2022-12-29T15:03:31.291Z,11.60
2022-12-29T15:06:09.443Z,11.60
2022-12-29T15:08:41.665Z,11.60
2022-12-29T15:11:16.623Z,11.60
2022-12-29T15:13:44.825Z,11.60
2022-12-29T15:16:32.663Z,11.70
2022-12-29T15:19:00.048Z,11.70
2022-12-29T15:21:32.846Z,11.70
2022-12-29T15:23:59.765Z,11.60
2022-12-29T15:26:39.967Z,11.70
2022-12-29T15:29:26.695Z,11.70
2022-12-29T15:31:56.559Z,11.70
2022-12-29T15:34:23.464Z,11.70
2022-12-29T15:36:51.883Z,11.70
2022-12-29T15:39:28.028Z,11.70
2022-12-29T15:42:05.379Z,11.70
2022-12-29T15:44:44.227Z,11.70
2022-12-29T15:47:22.051Z,11.70
2022-12-29T15:49:51.758Z,11.70
2022-12-29T15:52:21.157Z,11.70
2022-12-29T15:54:50.870Z,11.70
2022-12-29T15:57:38.631Z,11.70
2022-12-29T16:00:24.065Z,11.60
2022-12-29T16:02:51.089Z,11.60
2022-12-29T16:05:19.582Z,11.60
2022-12-29T16:08:00.858Z,11.60
2022-12-29T16:10:37.169Z,11.60
2022-12-29T16:13:16.508Z,11.60
2022-12-29T16:15:46.932Z,11.50
2022-12-29T16:18:35.947Z,11.50
2022-12-29T16:21:05.905Z,11.50
2022-12-29T16:23:37.212Z,11.50
2022-12-29T16:26:05.075Z,11.50
2022-12-29T16:28:44.346Z,11.50
2022-12-29T16:31:43.327Z,11.50
2022-12-29T16:34:34.728Z,11.50
2022-12-29T16:37:24.237Z,11.40
2022-12-29T16:39:51.100Z,11.40
2022-12-29T16:42:39.768Z,11.40
2022-12-29T16:45:21.872Z,11.40
2022-12-29T16:48:08.646Z,11.40
2022-12-29T16:50:37.737Z,11.40
2022-12-29T16:53:06.123Z,11.40
2022-12-29T16:55:33.761Z,11.40
2022-12-29T16:58:01.902Z,11.40
2022-12-29T17:00:33.845Z,11.40
2022-12-29T17:03:02.004Z,11.40
2022-12-29T17:05:28.977Z,11.50
2022-12-29T17:08:03.464Z,11.50
2022-12-29T17:10:49.029Z,11.50
2022-12-29T17:13:15.857Z,11.50
2022-12-29T17:15:43.044Z,11.50
2022-12-29T17:18:13.896Z,11.50
2022-12-29T17:20:42.205Z,11.50
2022-12-29T17:23:22.600Z,11.50
2022-12-29T17:25:54.270Z,11.50
2022-12-29T17:28:30.349Z,11.50
2022-12-29T17:31:02.287Z,11.50
2022-12-29T17:33:35.174Z,11.50
2022-12-29T17:36:01.983Z,11.50
2022-12-29T17:38:35.665Z,11.60
2022-12-29T17:41:02.611Z,11.60
2022-12-29T17:43:36.391Z,11.50
2022-12-29T17:46:07.110Z,11.50
2022-12-29T17:48:34.126Z,11.50
2022-12-29T17:51:01.019Z,11.50
2022-12-29T17:53:30.578Z,11.50
2022-12-29T17:55:57.557Z,11.50
2022-12-29T17:58:26.979Z,11.50
2022-12-29T18:00:57.212Z,11.50
2022-12-29T18:03:41.243Z,11.50
2022-12-29T18:06:11.325Z,11.50
2022-12-29T18:08:39.583Z,11.50
2022-12-29T18:11:27.131Z,11.50
2022-12-29T18:13:54.933Z,11.50
2022-12-29T18:16:22.317Z,11.50
2022-12-29T18:18:49.337Z,11.50
2022-12-29T18:21:21.393Z,11.50
2022-12-29T18:23:49.233Z,11.50
2022-12-29T18:26:28.025Z,11.50
2022-12-29T18:28:56.321Z,11.50
2022-12-29T18:31:25.779Z,11.50
2022-12-29T18:33:54.252Z,11.50
2022-12-29T18:36:22.274Z,11.50
2022-12-29T18:38:50.714Z,11.50
2022-12-29T18:41:21.852Z,11.40
2022-12-29T18:43:49.480Z,11.40
2022-12-29T18:46:22.372Z,11.40
2022-12-29T18:48:50.553Z,11.40
2022-12-29T18:51:23.063Z,11.40
2022-12-29T18:53:50.231Z,11.40
2022-12-29T18:56:17.031Z,11.40
2022-12-29T18:58:43.843Z,11.40
2022-12-29T19:01:22.634Z,11.40
2022-12-29T19:03:49.567Z,11.40
2022-12-29T19:06:17.954Z,11.40
2022-12-29T19:08:45.620Z,11.40
2022-12-29T19:11:12.888Z,11.50
2022-12-29T19:13:40.595Z,11.50
2022-12-29T19:16:09.168Z,11.50
2022-12-29T19:18:45.508Z,11.50
2022-12-29T19:21:13.432Z,11.50
2022-12-29T19:23:40.508Z,11.50
2022-12-29T19:26:07.351Z,11.50
2022-12-29T19:28:34.200Z,11.50
2022-12-29T19:31:02.923Z,11.50
2022-12-29T19:33:29.854Z,11.60
2022-12-29T19:36:03.118Z,11.60
2022-12-29T19:38:29.936Z,11.60
2022-12-29T19:40:57.213Z,11.60
2022-12-29T19:43:23.989Z,11.50
2022-12-29T19:45:52.515Z,11.60
2022-12-29T19:48:20.876Z,11.60
2022-12-29T19:50:47.921Z,11.60
2022-12-29T19:53:15.117Z,11.60
2022-12-29T19:55:44.059Z,11.60
2022-12-29T19:58:11.223Z,11.60
2022-12-29T20:00:42.486Z,11.60
2022-12-29T20:03:09.951Z,11.60
2022-12-29T20:05:37.277Z,11.60
2022-12-29T20:08:04.326Z,11.60
2022-12-29T20:10:31.131Z,11.60
2022-12-29T20:12:57.942Z,11.60
2022-12-29T20:15:25.208Z,11.60
2022-12-29T20:20:39.200Z,11.60
2022-12-29T20:23:06.106Z,11.60
2022-12-29T20:25:48.642Z,11.70
2022-12-29T20:28:17.321Z,11.70
2022-12-29T20:30:44.544Z,11.70
2022-12-29T20:33:11.588Z,11.70
2022-12-29T20:35:38.643Z,11.70
2022-12-29T20:38:06.016Z,11.70
2022-12-29T20:40:32.867Z,11.60
2022-12-29T20:42:59.830Z,11.70
2022-12-29T20:45:26.819Z,11.70
2022-12-29T20:47:54.823Z,11.70
2022-12-29T20:50:21.680Z,11.70
2022-12-29T20:52:48.523Z,11.60
2022-12-29T20:55:15.386Z,11.60
2022-12-29T20:58:22.010Z,11.60
2022-12-29T21:00:30.604Z,11.60
2022-12-29T21:02:59.456Z,11.60
2022-12-29T21:05:30.383Z,11.60
2022-12-29T21:08:17.867Z,11.60
2022-12-29T21:10:47.602Z,11.60
2022-12-29T21:13:15.320Z,11.60
2022-12-29T21:15:44.684Z,11.50
2022-12-29T21:18:12.240Z,11.60
2022-12-29T21:20:39.334Z,11.60
2022-12-29T21:23:06.477Z,11.60
2022-12-29T21:25:40.081Z,11.60
2022-12-29T21:28:08.801Z,11.60
2022-12-29T21:30:36.066Z,11.50
2022-12-29T21:33:03.244Z,11.50
2022-12-29T21:35:30.597Z,11.50
2022-12-29T21:37:57.483Z,11.50
2022-12-29T21:40:24.332Z,11.50
2022-12-29T21:42:51.313Z,11.60
2022-12-29T21:45:31.071Z,11.60
2022-12-29T21:48:21.132Z,11.60
2022-12-29T21:51:15.759Z,11.60
2022-12-29T21:53:44.481Z,11.60
2022-12-29T21:56:15.746Z,11.60
2022-12-29T21:59:07.181Z,11.70
2022-12-29T22:01:55.930Z,11.70
2022-12-29T22:04:44.297Z,11.70
2022-12-29T22:07:31.048Z,11.70
2022-12-29T22:10:16.747Z,11.70
2022-12-29T22:13:01.847Z,11.70
2022-12-29T22:15:31.263Z,11.70
2022-12-29T22:17:58.457Z,11.70
2022-12-29T22:20:28.034Z,11.70
2022-12-29T22:22:55.433Z,11.70
2022-12-29T22:25:23.008Z,11.70
2022-12-29T22:27:54.215Z,11.70
2022-12-29T22:30:26.383Z,11.70
2022-12-29T22:32:53.198Z,11.70
2022-12-29T22:35:20.118Z,11.70
2022-12-29T22:37:46.922Z,11.70
2022-12-29T22:40:13.935Z,11.70
2022-12-29T22:42:40.732Z,11.60
2022-12-29T22:45:08.310Z,11.60
2022-12-29T22:47:35.282Z,11.60
2022-12-29T22:50:02.594Z,11.50
2022-12-29T22:52:29.502Z,11.50
2022-12-29T22:54:58.180Z,11.50
2022-12-29T22:57:30.854Z,11.40
2022-12-29T22:59:57.653Z,11.40
2022-12-29T23:02:30.456Z,11.40
2022-12-29T23:05:05.878Z,11.30
2022-12-29T23:07:34.479Z,11.30
2022-12-29T23:10:01.661Z,11.30
2022-12-29T23:12:31.960Z,11.20
2022-12-29T23:14:58.776Z,11.20
2022-12-29T23:17:25.759Z,11.20
2022-12-29T23:19:52.913Z,11.20
2022-12-29T23:22:20.176Z,11.20
2022-12-29T23:24:47.536Z,11.20
2022-12-29T23:27:14.398Z,11.20
2022-12-29T23:29:41.234Z,11.20
2022-12-29T23:32:08.184Z,11.20
2022-12-29T23:34:35.153Z,11.20
2022-12-29T23:37:02.004Z,11.20
2022-12-29T23:39:29.539Z,11.20
2022-12-29T23:41:56.369Z,11.20
2022-12-29T23:44:23.301Z,11.20
2022-12-29T23:46:50.933Z,11.20
2022-12-29T23:49:17.837Z,11.20
2022-12-29T23:51:44.642Z,11.20
2022-12-29T23:54:11.580Z,11.20
2022-12-29T23:56:38.408Z,11.20
2022-12-29T23:59:05.806Z,11.20
